Pure Adrenalin — VJD3680 — position and weather

sailwx.info

Track history (hours):
 
Tides and Currents Weather Stations Pressure Air Temp Water Temp Dewpoint Dewpoint Depression Visibility Wind Speed Wind Dir Waves Ship Positions

Pure Adrenalin

Last reported at 2014-Nov-19 01:19 UTC. Time now 2014-Nov-23 21:23 UTC.
Position S 12°28' E 130°51'.

Length 21 m.

Type: Ship. MMSI: 503642100.

Date/timePositionNaut miles runAvg speedWind from/ knotsBaromVisibWave heightAir tempDewpointWater temp
2014-Nov-19 01:19S 12°28' E 130°51'0 0.0
2014-Nov-18 23:17S 12°28' E 130°51'0 0.0
2014-Nov-18 22:32S 12°28' E 130°51'0 0.0
2014-Nov-18 21:29S 12°28' E 130°51'0 0.0
2014-Nov-18 20:32S 12°28' E 130°51'0 0.0
2014-Nov-18 19:32S 12°28' E 130°51'0 0.0
2014-Nov-18 17:32S 12°28' E 130°51'0 0.0
2014-Nov-18 16:32S 12°28' E 130°51'0 0.0
2014-Nov-18 15:32S 12°28' E 130°51'0 0.0
2014-Nov-18 14:32S 12°28' E 130°51'0 0.0
2014-Nov-18 13:29S 12°28' E 130°51'0 0.0
2014-Nov-18 12:32S 12°28' E 130°51'1 0.8
2014-Nov-18 11:32S 12°28' E 130°51'1 0.9
2014-Nov-18 10:33S 12°28' E 130°51'1919.3
2014-Nov-18 09:33S 12°22' E 130°32'6 0.2
2014-Nov-17 05:33S 12°23' E 130°26'1716.6
2014-Nov-17 04:32S 12°23' E 130°43'9 9.1
2014-Nov-17 03:33S 12°28' E 130°51'1 0.7
2014-Nov-17 02:31S 12°28' E 130°51'0 0.0
2014-Nov-17 01:31S 12°28' E 130°51'2 2.5
2014-Nov-17 00:34S 12°27' E 130°48'2019.7
2014-Nov-16 23:32S 12°23' E 130°28'7 0.8
2014-Nov-16 15:18S 12°24' E 130°21'1519.7
2014-Nov-16 14:33S 12°22' E 130°36'1615.6
2014-Nov-16 13:32S 12°28' E 130°51'0 0.0
2014-Nov-16 12:32S 12°28' E 130°51'6 6.3
2014-Nov-16 11:33S 12°25' E 130°46'1919.2
2014-Nov-16 10:33S 12°23' E 130°26'16 2.6
2014-Nov-16 04:10S 12°23' E 130°43'914.4
2014-Nov-16 03:32S 12°28' E 130°51'0 0.0
2014-Nov-16 02:32S 12°28' E 130°51'2 2.1
2014-Nov-16 01:33S 12°28' E 130°49'1818.1
2014-Nov-16 00:33S 12°22' E 130°31'3 0.3
2014-Nov-15 13:34S 12°22' E 130°28'1515.1
2014-Nov-15 12:34S 12°23' E 130°43'9 8.7
2014-Nov-15 11:32S 12°28' E 130°51'3 3.2
2014-Nov-15 10:33S 12°27' E 130°48'2019.9
2014-Nov-15 09:34S 12°23' E 130°28'4 0.7
2014-Nov-15 03:33S 12°23' E 130°23'2120.8
2014-Nov-15 02:33S 12°24' E 130°44'8 7.6
2014-Nov-15 01:33S 12°28' E 130°51'1514.6
2014-Nov-15 00:33S 12°22' E 130°37'  
2014-Nov-12 14:24S 12°24' E 130°19'1719.7
2014-Nov-12 13:33S 12°22' E 130°36'1514.9
2014-Nov-12 12:31S 12°28' E 130°51'0 0.0
2014-Nov-12 11:31S 12°28' E 130°51'0 0.0
2014-Nov-12 10:31S 12°28' E 130°51'0 0.0
2014-Nov-12 09:31S 12°28' E 130°51'0 0.0
2014-Nov-12 08:31S 12°28' E 130°51'0 0.0
2014-Nov-12 07:28S 12°28' E 130°51'0 0.0
2014-Nov-12 06:26S 12°28' E 130°51'0 0.0
2014-Nov-12 05:32S 12°28' E 130°51'0 0.0
2014-Nov-12 04:32S 12°28' E 130°51'0 0.0
2014-Nov-12 03:32S 12°28' E 130°51'0 0.0
2014-Nov-12 02:32S 12°28' E 130°51'0 0.0
2014-Nov-11 11:12S 12°28' E 130°51'1 1.0
2014-Nov-11 10:32S 12°28' E 130°51'0 0.0
2014-Nov-11 09:32S 12°28' E 130°51'0 0.0
2014-Nov-11 08:32S 12°28' E 130°51'0 0.0
2014-Nov-11 07:32S 12°28' E 130°51'0 0.0
2014-Nov-11 06:32S 12°28' E 130°51'0 0.0
2014-Nov-10 22:32S 12°28' E 130°51'0 0.0
2014-Nov-10 08:08S 12°28' E 130°51'0 0.1
2014-Nov-10 07:32S 12°28' E 130°51'0 0.0
2014-Nov-10 06:32S 12°28' E 130°51'1 0.7
2014-Nov-10 05:29S 12°28' E 130°51'3 3.7
2014-Nov-10 04:33S 12°27' E 130°48'1919.5
2014-Nov-10 03:33S 12°22' E 130°28'55 3.8
2014-Nov-09 13:20S 12°30' E 129°33'  
Track history (hours):
 
Tides and Currents Weather Stations Pressure Air Temp Water Temp Dewpoint Dewpoint Depression Visibility Wind Speed Wind Dir Waves Ship Positions

Pure Adrenalin

Last reported at 2014-Nov-19 01:19 UTC. Time now 2014-Nov-23 21:23 UTC.
Position S 12°28' E 130°51'.

Length 21 m.

Type: Ship. MMSI: 503642100.

Date/timePositionNaut miles runAvg speedWind from/ knotsBaromVisibWave heightAir tempDewpointWater temp
2014-Nov-19 01:19S 12°28' E 130°51'0 0.0
2014-Nov-18 23:17S 12°28' E 130°51'0 0.0
2014-Nov-18 22:32S 12°28' E 130°51'0 0.0
2014-Nov-18 21:29S 12°28' E 130°51'0 0.0
2014-Nov-18 20:32S 12°28' E 130°51'0 0.0
2014-Nov-18 19:32S 12°28' E 130°51'0 0.0
2014-Nov-18 17:32S 12°28' E 130°51'0 0.0
2014-Nov-18 16:32S 12°28' E 130°51'0 0.0
2014-Nov-18 15:32S 12°28' E 130°51'0 0.0
2014-Nov-18 14:32S 12°28' E 130°51'0 0.0
2014-Nov-18 13:29S 12°28' E 130°51'0 0.0
2014-Nov-18 12:32S 12°28' E 130°51'1 0.8
2014-Nov-18 11:32S 12°28' E 130°51'1 0.9
2014-Nov-18 10:33S 12°28' E 130°51'1919.3
2014-Nov-18 09:33S 12°22' E 130°32'6 0.2
2014-Nov-17 05:33S 12°23' E 130°26'1716.6
2014-Nov-17 04:32S 12°23' E 130°43'9 9.1
2014-Nov-17 03:33S 12°28' E 130°51'1 0.7
2014-Nov-17 02:31S 12°28' E 130°51'0 0.0
2014-Nov-17 01:31S 12°28' E 130°51'2 2.5
2014-Nov-17 00:34S 12°27' E 130°48'2019.7
2014-Nov-16 23:32S 12°23' E 130°28'7 0.8
2014-Nov-16 15:18S 12°24' E 130°21'1519.7
2014-Nov-16 14:33S 12°22' E 130°36'1615.6
2014-Nov-16 13:32S 12°28' E 130°51'0 0.0
2014-Nov-16 12:32S 12°28' E 130°51'6 6.3
2014-Nov-16 11:33S 12°25' E 130°46'1919.2
2014-Nov-16 10:33S 12°23' E 130°26'16 2.6
2014-Nov-16 04:10S 12°23' E 130°43'914.4
2014-Nov-16 03:32S 12°28' E 130°51'0 0.0
2014-Nov-16 02:32S 12°28' E 130°51'2 2.1
2014-Nov-16 01:33S 12°28' E 130°49'1818.1
2014-Nov-16 00:33S 12°22' E 130°31'3 0.3
2014-Nov-15 13:34S 12°22' E 130°28'1515.1
2014-Nov-15 12:34S 12°23' E 130°43'9 8.7
2014-Nov-15 11:32S 12°28' E 130°51'3 3.2
2014-Nov-15 10:33S 12°27' E 130°48'2019.9
2014-Nov-15 09:34S 12°23' E 130°28'4 0.7
2014-Nov-15 03:33S 12°23' E 130°23'2120.8
2014-Nov-15 02:33S 12°24' E 130°44'8 7.6
2014-Nov-15 01:33S 12°28' E 130°51'1514.6
2014-Nov-15 00:33S 12°22' E 130°37'  
2014-Nov-12 14:24S 12°24' E 130°19'1719.7
2014-Nov-12 13:33S 12°22' E 130°36'1514.9
2014-Nov-12 12:31S 12°28' E 130°51'0 0.0
2014-Nov-12 11:31S 12°28' E 130°51'0 0.0
2014-Nov-12 10:31S 12°28' E 130°51'0 0.0
2014-Nov-12 09:31S 12°28' E 130°51'0 0.0
2014-Nov-12 08:31S 12°28' E 130°51'0 0.0
2014-Nov-12 07:28S 12°28' E 130°51'0 0.0
2014-Nov-12 06:26S 12°28' E 130°51'0 0.0
2014-Nov-12 05:32S 12°28' E 130°51'0 0.0
2014-Nov-12 04:32S 12°28' E 130°51'0 0.0
2014-Nov-12 03:32S 12°28' E 130°51'0 0.0
2014-Nov-12 02:32S 12°28' E 130°51'0 0.0
2014-Nov-11 11:12S 12°28' E 130°51'1 1.0
2014-Nov-11 10:32S 12°28' E 130°51'0 0.0
2014-Nov-11 09:32S 12°28' E 130°51'0 0.0
2014-Nov-11 08:32S 12°28' E 130°51'0 0.0
2014-Nov-11 07:32S 12°28' E 130°51'0 0.0
2014-Nov-11 06:32S 12°28' E 130°51'0 0.0
2014-Nov-10 22:32S 12°28' E 130°51'0 0.0
2014-Nov-10 08:08S 12°28' E 130°51'0 0.1
2014-Nov-10 07:32S 12°28' E 130°51'0 0.0
2014-Nov-10 06:32S 12°28' E 130°51'1 0.7
2014-Nov-10 05:29S 12°28' E 130°51'3 3.7
2014-Nov-10 04:33S 12°27' E 130°48'1919.5
2014-Nov-10 03:33S 12°22' E 130°28'55 3.8
2014-Nov-09 13:20S 12°30' E 129°33'  

Dump ship's entire track history